sensor_id;sensor_type;location;lat;lon;timestamp;P1;durP1;ratioP1;P2;durP2;ratioP2
52268;SDS011;38224;50.950;4.100;2023-01-01T00:01:59;10.05;;;3.13;;
52268;SDS011;38224;50.950;4.100;2023-01-01T00:04:25;17.20;;;3.58;;
52268;SDS011;38224;50.950;4.100;2023-01-01T00:06:50;12.80;;;3.70;;
52268;SDS011;38224;50.950;4.100;2023-01-01T00:09:19;10.43;;;3.30;;
52268;SDS011;38224;50.950;4.100;2023-01-01T00:12:06;12.60;;;3.50;;
52268;SDS011;38224;50.950;4.100;2023-01-01T00:14:31;9.35;;;3.60;;
52268;SDS011;38224;50.950;4.100;2023-01-01T00:16:57;12.10;;;3.23;;
52268;SDS011;38224;50.950;4.100;2023-01-01T00:19:22;11.30;;;3.57;;
52268;SDS011;38224;50.950;4.100;2023-01-01T00:21:47;7.40;;;3.07;;
52268;SDS011;38224;50.950;4.100;2023-01-01T00:24:12;7.37;;;2.80;;
52268;SDS011;38224;50.950;4.100;2023-01-01T00:26:40;10.20;;;3.10;;
52268;SDS011;38224;50.950;4.100;2023-01-01T00:29:08;12.70;;;3.63;;
52268;SDS011;38224;50.950;4.100;2023-01-01T00:31:37;10.18;;;2.67;;
52268;SDS011;38224;50.950;4.100;2023-01-01T00:34:02;13.20;;;3.45;;
52268;SDS011;38224;50.950;4.100;2023-01-01T00:36:28;7.72;;;3.28;;
52268;SDS011;38224;50.950;4.100;2023-01-01T00:38:54;9.13;;;3.05;;
52268;SDS011;38224;50.950;4.100;2023-01-01T00:41:20;12.88;;;4.00;;
52268;SDS011;38224;50.950;4.100;2023-01-01T00:43:45;14.13;;;3.70;;
52268;SDS011;38224;50.950;4.100;2023-01-01T00:46:11;11.88;;;3.00;;
52268;SDS011;38224;50.950;4.100;2023-01-01T00:48:36;9.90;;;3.17;;
52268;SDS011;38224;50.950;4.100;2023-01-01T00:51:02;9.73;;;2.67;;
52268;SDS011;38224;50.950;4.100;2023-01-01T00:53:27;10.82;;;3.22;;
52268;SDS011;38224;50.950;4.100;2023-01-01T00:55:53;12.20;;;2.92;;
52268;SDS011;38224;50.950;4.100;2023-01-01T00:58:20;11.45;;;2.63;;
52268;SDS011;38224;50.950;4.100;2023-01-01T01:00:46;9.02;;;2.60;;
52268;SDS011;38224;50.950;4.100;2023-01-01T01:03:12;9.23;;;3.27;;
52268;SDS011;38224;50.950;4.100;2023-01-01T01:05:55;7.10;;;2.63;;
52268;SDS011;38224;50.950;4.100;2023-01-01T01:08:21;12.57;;;2.90;;
52268;SDS011;38224;50.950;4.100;2023-01-01T01:10:46;10.67;;;2.63;;
52268;SDS011;38224;50.950;4.100;2023-01-01T01:13:11;9.17;;;2.90;;
52268;SDS011;38224;50.950;4.100;2023-01-01T01:15:36;19.00;;;2.77;;
52268;SDS011;38224;50.950;4.100;2023-01-01T01:18:02;10.07;;;3.00;;
52268;SDS011;38224;50.950;4.100;2023-01-01T01:20:27;7.35;;;2.40;;
52268;SDS011;38224;50.950;4.100;2023-01-01T01:22:53;13.25;;;2.90;;
52268;SDS011;38224;50.950;4.100;2023-01-01T01:25:18;8.93;;;2.67;;
52268;SDS011;38224;50.950;4.100;2023-01-01T01:27:43;9.60;;;2.90;;
52268;SDS011;38224;50.950;4.100;2023-01-01T01:30:08;12.80;;;3.33;;
52268;SDS011;38224;50.950;4.100;2023-01-01T01:32:34;7.03;;;2.65;;
52268;SDS011;38224;50.950;4.100;2023-01-01T01:34:59;12.65;;;2.80;;
52268;SDS011;38224;50.950;4.100;2023-01-01T01:37:24;15.27;;;4.03;;
52268;SDS011;38224;50.950;4.100;2023-01-01T01:39:49;9.57;;;3.20;;
52268;SDS011;38224;50.950;4.100;2023-01-01T01:42:15;10.33;;;2.80;;
52268;SDS011;38224;50.950;4.100;2023-01-01T01:44:52;9.93;;;3.08;;
52268;SDS011;38224;50.950;4.100;2023-01-01T01:49:50;12.27;;;3.88;;
52268;SDS011;38224;50.950;4.100;2023-01-01T01:52:17;11.07;;;3.28;;
52268;SDS011;38224;50.950;4.100;2023-01-01T01:54:42;20.03;;;3.00;;
52268;SDS011;38224;50.950;4.100;2023-01-01T01:57:08;13.70;;;3.17;;
52268;SDS011;38224;50.950;4.100;2023-01-01T01:59:35;12.10;;;2.67;;
52268;SDS011;38224;50.950;4.100;2023-01-01T02:02:01;8.57;;;3.00;;
52268;SDS011;38224;50.950;4.100;2023-01-01T02:04:26;4.53;;;2.23;;
52268;SDS011;38224;50.950;4.100;2023-01-01T02:06:52;9.07;;;3.20;;
52268;SDS011;38224;50.950;4.100;2023-01-01T02:09:18;14.63;;;3.42;;
52268;SDS011;38224;50.950;4.100;2023-01-01T02:11:43;9.00;;;2.40;;
52268;SDS011;38224;50.950;4.100;2023-01-01T02:14:08;6.27;;;2.30;;
52268;SDS011;38224;50.950;4.100;2023-01-01T02:21:55;11.02;;;2.35;;
52268;SDS011;38224;50.950;4.100;2023-01-01T02:24:25;7.57;;;3.05;;
52268;SDS011;38224;50.950;4.100;2023-01-01T02:29:52;13.07;;;3.03;;
52268;SDS011;38224;50.950;4.100;2023-01-01T02:32:20;12.02;;;2.42;;
52268;SDS011;38224;50.950;4.100;2023-01-01T02:37:21;14.70;;;2.88;;
52268;SDS011;38224;50.950;4.100;2023-01-01T02:39:52;9.95;;;2.08;;
52268;SDS011;38224;50.950;4.100;2023-01-01T02:42:19;12.07;;;2.88;;
52268;SDS011;38224;50.950;4.100;2023-01-01T02:44:46;8.18;;;2.85;;
52268;SDS011;38224;50.950;4.100;2023-01-01T02:47:14;10.18;;;2.72;;
52268;SDS011;38224;50.950;4.100;2023-01-01T02:49:48;16.20;;;3.42;;
52268;SDS011;38224;50.950;4.100;2023-01-01T02:52:40;15.80;;;3.03;;
52268;SDS011;38224;50.950;4.100;2023-01-01T02:55:03;10.98;;;2.58;;
52268;SDS011;38224;50.950;4.100;2023-01-01T02:57:35;17.55;;;3.10;;
52268;SDS011;38224;50.950;4.100;2023-01-01T03:08:27;8.75;;;2.70;;
52268;SDS011;38224;50.950;4.100;2023-01-01T03:15:49;9.98;;;2.38;;
52268;SDS011;38224;50.950;4.100;2023-01-01T03:21:05;17.73;;;3.55;;
52268;SDS011;38224;50.950;4.100;2023-01-01T03:23:38;12.30;;;3.33;;
52268;SDS011;38224;50.950;4.100;2023-01-01T03:26:06;14.77;;;2.78;;
52268;SDS011;38224;50.950;4.100;2023-01-01T03:28:37;10.52;;;2.63;;
52268;SDS011;38224;50.950;4.100;2023-01-01T03:31:04;11.15;;;3.00;;
52268;SDS011;38224;50.950;4.100;2023-01-01T03:33:40;7.88;;;2.47;;
52268;SDS011;38224;50.950;4.100;2023-01-01T03:36:14;15.73;;;2.88;;
52268;SDS011;38224;50.950;4.100;2023-01-01T03:38:44;10.75;;;3.00;;
52268;SDS011;38224;50.950;4.100;2023-01-01T03:41:22;12.82;;;2.97;;
52268;SDS011;38224;50.950;4.100;2023-01-01T03:43:55;9.82;;;2.40;;
52268;SDS011;38224;50.950;4.100;2023-01-01T03:46:23;14.60;;;3.08;;
52268;SDS011;38224;50.950;4.100;2023-01-01T03:48:50;10.73;;;2.63;;
52268;SDS011;38224;50.950;4.100;2023-01-01T03:54:07;9.25;;;2.83;;
52268;SDS011;38224;50.950;4.100;2023-01-01T03:56:42;7.35;;;2.35;;
52268;SDS011;38224;50.950;4.100;2023-01-01T03:59:18;17.45;;;3.17;;
52268;SDS011;38224;50.950;4.100;2023-01-01T04:01:46;9.50;;;2.85;;
52268;SDS011;38224;50.950;4.100;2023-01-01T04:04:12;9.27;;;3.13;;
52268;SDS011;38224;50.950;4.100;2023-01-01T04:06:39;14.73;;;3.13;;
52268;SDS011;38224;50.950;4.100;2023-01-01T04:09:04;13.00;;;3.30;;
52268;SDS011;38224;50.950;4.100;2023-01-01T04:11:32;13.05;;;3.38;;
52268;SDS011;38224;50.950;4.100;2023-01-01T04:14:32;7.63;;;3.35;;
52268;SDS011;38224;50.950;4.100;2023-01-01T04:16:58;11.50;;;2.60;;
52268;SDS011;38224;50.950;4.100;2023-01-01T04:19:24;13.75;;;2.83;;
52268;SDS011;38224;50.950;4.100;2023-01-01T04:21:49;16.90;;;2.60;;
52268;SDS011;38224;50.950;4.100;2023-01-01T04:24:14;7.07;;;2.63;;
52268;SDS011;38224;50.950;4.100;2023-01-01T04:26:40;13.20;;;2.55;;
52268;SDS011;38224;50.950;4.100;2023-01-01T04:29:05;13.35;;;2.92;;
52268;SDS011;38224;50.950;4.100;2023-01-01T04:31:30;12.90;;;3.17;;
52268;SDS011;38224;50.950;4.100;2023-01-01T04:33:56;12.23;;;3.28;;
52268;SDS011;38224;50.950;4.100;2023-01-01T04:36:21;12.38;;;3.28;;
52268;SDS011;38224;50.950;4.100;2023-01-01T04:38:46;10.15;;;2.85;;
52268;SDS011;38224;50.950;4.100;2023-01-01T04:41:12;11.68;;;2.65;;
52268;SDS011;38224;50.950;4.100;2023-01-01T04:43:37;10.17;;;3.00;;
52268;SDS011;38224;50.950;4.100;2023-01-01T04:46:02;12.17;;;2.67;;
52268;SDS011;38224;50.950;4.100;2023-01-01T04:48:29;12.50;;;3.33;;
52268;SDS011;38224;50.950;4.100;2023-01-01T04:50:58;12.52;;;3.35;;
52268;SDS011;38224;50.950;4.100;2023-01-01T04:53:24;10.90;;;2.65;;
52268;SDS011;38224;50.950;4.100;2023-01-01T04:55:49;11.82;;;2.95;;
52268;SDS011;38224;50.950;4.100;2023-01-01T04:58:15;12.80;;;3.85;;
52268;SDS011;38224;50.950;4.100;2023-01-01T05:00:47;12.80;;;3.37;;
52268;SDS011;38224;50.950;4.100;2023-01-01T05:03:12;13.68;;;3.00;;
52268;SDS011;38224;50.950;4.100;2023-01-01T05:05:37;13.27;;;3.87;;
52268;SDS011;38224;50.950;4.100;2023-01-01T05:08:02;13.77;;;3.57;;
52268;SDS011;38224;50.950;4.100;2023-01-01T05:10:28;8.93;;;2.60;;
52268;SDS011;38224;50.950;4.100;2023-01-01T05:12:53;8.60;;;3.00;;
52268;SDS011;38224;50.950;4.100;2023-01-01T05:15:18;11.77;;;3.07;;
52268;SDS011;38224;50.950;4.100;2023-01-01T05:17:43;12.73;;;3.00;;
52268;SDS011;38224;50.950;4.100;2023-01-01T05:20:09;11.93;;;3.10;;
52268;SDS011;38224;50.950;4.100;2023-01-01T05:22:34;12.57;;;3.10;;
52268;SDS011;38224;50.950;4.100;2023-01-01T05:24:59;17.53;;;3.10;;
52268;SDS011;38224;50.950;4.100;2023-01-01T05:27:24;15.67;;;3.93;;
52268;SDS011;38224;50.950;4.100;2023-01-01T05:29:50;15.77;;;3.50;;
52268;SDS011;38224;50.950;4.100;2023-01-01T05:32:15;12.97;;;3.17;;
52268;SDS011;38224;50.950;4.100;2023-01-01T05:34:40;14.67;;;2.60;;
52268;SDS011;38224;50.950;4.100;2023-01-01T05:37:05;15.38;;;3.10;;
52268;SDS011;38224;50.950;4.100;2023-01-01T05:39:31;13.03;;;2.77;;
52268;SDS011;38224;50.950;4.100;2023-01-01T05:41:56;10.43;;;2.73;;
52268;SDS011;38224;50.950;4.100;2023-01-01T05:44:21;17.80;;;3.00;;
52268;SDS011;38224;50.950;4.100;2023-01-01T05:46:46;9.68;;;2.90;;
52268;SDS011;38224;50.950;4.100;2023-01-01T05:49:12;17.30;;;3.50;;
52268;SDS011;38224;50.950;4.100;2023-01-01T05:51:37;7.13;;;2.13;;
52268;SDS011;38224;50.950;4.100;2023-01-01T05:54:02;10.50;;;2.22;;
52268;SDS011;38224;50.950;4.100;2023-01-01T05:56:27;11.35;;;2.67;;
52268;SDS011;38224;50.950;4.100;2023-01-01T05:58:53;14.80;;;2.70;;
52268;SDS011;38224;50.950;4.100;2023-01-01T06:01:20;9.25;;;2.30;;
52268;SDS011;38224;50.950;4.100;2023-01-01T06:03:46;12.18;;;2.42;;
52268;SDS011;38224;50.950;4.100;2023-01-01T06:06:15;12.23;;;2.35;;
52268;SDS011;38224;50.950;4.100;2023-01-01T06:08:41;9.68;;;2.40;;
52268;SDS011;38224;50.950;4.100;2023-01-01T06:11:07;11.23;;;3.08;;
52268;SDS011;38224;50.950;4.100;2023-01-01T06:13:33;8.35;;;2.30;;
52268;SDS011;38224;50.950;4.100;2023-01-01T06:15:59;8.75;;;1.90;;
52268;SDS011;38224;50.950;4.100;2023-01-01T06:18:25;11.70;;;2.58;;
52268;SDS011;38224;50.950;4.100;2023-01-01T06:20:51;12.15;;;2.85;;
52268;SDS011;38224;50.950;4.100;2023-01-01T06:23:16;11.20;;;3.08;;
52268;SDS011;38224;50.950;4.100;2023-01-01T06:25:41;16.50;;;2.92;;
52268;SDS011;38224;50.950;4.100;2023-01-01T06:28:06;11.77;;;2.97;;
52268;SDS011;38224;50.950;4.100;2023-01-01T06:30:32;11.40;;;3.13;;
52268;SDS011;38224;50.950;4.100;2023-01-01T06:32:59;13.75;;;2.97;;
52268;SDS011;38224;50.950;4.100;2023-01-01T06:35:24;12.50;;;3.67;;
52268;SDS011;38224;50.950;4.100;2023-01-01T06:37:49;15.27;;;3.38;;
52268;SDS011;38224;50.950;4.100;2023-01-01T06:40:14;13.30;;;3.33;;
52268;SDS011;38224;50.950;4.100;2023-01-01T06:42:40;12.02;;;3.15;;
52268;SDS011;38224;50.950;4.100;2023-01-01T06:45:05;11.10;;;3.40;;
52268;SDS011;38224;50.950;4.100;2023-01-01T06:47:34;12.68;;;3.30;;
52268;SDS011;38224;50.950;4.100;2023-01-01T06:49:59;11.48;;;2.63;;
52268;SDS011;38224;50.950;4.100;2023-01-01T06:52:25;12.75;;;3.08;;
52268;SDS011;38224;50.950;4.100;2023-01-01T06:54:50;17.37;;;3.70;;
52268;SDS011;38224;50.950;4.100;2023-01-01T06:57:15;13.93;;;3.40;;
52268;SDS011;38224;50.950;4.100;2023-01-01T06:59:40;14.38;;;3.42;;
52268;SDS011;38224;50.950;4.100;2023-01-01T07:02:07;16.33;;;3.67;;
52268;SDS011;38224;50.950;4.100;2023-01-01T07:04:33;13.95;;;3.00;;
52268;SDS011;38224;50.950;4.100;2023-01-01T07:06:58;16.23;;;3.53;;
52268;SDS011;38224;50.950;4.100;2023-01-01T07:09:25;16.85;;;3.92;;
52268;SDS011;38224;50.950;4.100;2023-01-01T07:11:50;11.33;;;4.00;;
52268;SDS011;38224;50.950;4.100;2023-01-01T07:14:15;12.40;;;3.57;;
52268;SDS011;38224;50.950;4.100;2023-01-01T07:16:40;14.30;;;3.33;;
52268;SDS011;38224;50.950;4.100;2023-01-01T07:19:06;12.00;;;4.07;;
52268;SDS011;38224;50.950;4.100;2023-01-01T07:21:32;15.52;;;3.78;;
52268;SDS011;38224;50.950;4.100;2023-01-01T07:23:58;17.98;;;3.83;;
52268;SDS011;38224;50.950;4.100;2023-01-01T07:26:24;17.38;;;3.78;;
52268;SDS011;38224;50.950;4.100;2023-01-01T07:28:50;12.07;;;3.63;;
52268;SDS011;38224;50.950;4.100;2023-01-01T07:31:15;21.48;;;4.25;;
52268;SDS011;38224;50.950;4.100;2023-01-01T07:33:40;13.53;;;4.13;;
52268;SDS011;38224;50.950;4.100;2023-01-01T07:36:06;16.93;;;3.57;;
52268;SDS011;38224;50.950;4.100;2023-01-01T07:38:31;15.75;;;4.38;;
52268;SDS011;38224;50.950;4.100;2023-01-01T07:40:56;15.47;;;3.60;;
52268;SDS011;38224;50.950;4.100;2023-01-01T07:43:22;21.67;;;3.90;;
52268;SDS011;38224;50.950;4.100;2023-01-01T07:45:47;14.47;;;3.40;;
52268;SDS011;38224;50.950;4.100;2023-01-01T07:48:12;14.70;;;3.57;;
52268;SDS011;38224;50.950;4.100;2023-01-01T07:50:41;16.45;;;3.47;;
52268;SDS011;38224;50.950;4.100;2023-01-01T07:53:06;13.65;;;3.70;;
52268;SDS011;38224;50.950;4.100;2023-01-01T07:55:32;19.23;;;4.10;;
52268;SDS011;38224;50.950;4.100;2023-01-01T07:58:00;8.68;;;3.05;;
52268;SDS011;38224;50.950;4.100;2023-01-01T08:00:28;21.70;;;3.50;;
52268;SDS011;38224;50.950;4.100;2023-01-01T08:02:54;14.13;;;3.95;;
52268;SDS011;38224;50.950;4.100;2023-01-01T08:05:19;15.43;;;4.07;;
52268;SDS011;38224;50.950;4.100;2023-01-01T08:07:48;17.87;;;4.13;;
52268;SDS011;38224;50.950;4.100;2023-01-01T08:10:14;12.85;;;3.67;;
52268;SDS011;38224;50.950;4.100;2023-01-01T08:12:39;17.20;;;3.88;;
52268;SDS011;38224;50.950;4.100;2023-01-01T08:15:05;17.17;;;3.80;;
52268;SDS011;38224;50.950;4.100;2023-01-01T08:17:30;20.50;;;4.10;;
52268;SDS011;38224;50.950;4.100;2023-01-01T08:19:55;21.00;;;4.10;;
52268;SDS011;38224;50.950;4.100;2023-01-01T08:22:23;20.48;;;4.22;;
52268;SDS011;38224;50.950;4.100;2023-01-01T08:24:48;20.83;;;4.40;;
52268;SDS011;38224;50.950;4.100;2023-01-01T08:27:14;16.70;;;3.40;;
52268;SDS011;38224;50.950;4.100;2023-01-01T08:29:40;14.63;;;3.90;;
52268;SDS011;38224;50.950;4.100;2023-01-01T08:32:05;16.25;;;3.85;;
52268;SDS011;38224;50.950;4.100;2023-01-01T08:34:30;17.30;;;3.58;;
52268;SDS011;38224;50.950;4.100;2023-01-01T08:36:56;18.03;;;4.03;;
52268;SDS011;38224;50.950;4.100;2023-01-01T08:39:21;17.45;;;3.97;;
52268;SDS011;38224;50.950;4.100;2023-01-01T08:41:46;23.63;;;4.00;;
52268;SDS011;38224;50.950;4.100;2023-01-01T08:44:11;16.50;;;4.83;;
52268;SDS011;38224;50.950;4.100;2023-01-01T08:46:37;22.45;;;4.80;;
52268;SDS011;38224;50.950;4.100;2023-01-01T08:49:02;19.73;;;4.10;;
52268;SDS011;38224;50.950;4.100;2023-01-01T08:51:27;15.05;;;3.97;;
52268;SDS011;38224;50.950;4.100;2023-01-01T08:53:53;18.25;;;4.15;;
52268;SDS011;38224;50.950;4.100;2023-01-01T08:56:19;15.65;;;4.32;;
52268;SDS011;38224;50.950;4.100;2023-01-01T08:58:44;17.58;;;4.25;;
52268;SDS011;38224;50.950;4.100;2023-01-01T09:01:09;19.35;;;3.92;;
52268;SDS011;38224;50.950;4.100;2023-01-01T09:03:37;19.27;;;4.13;;
52268;SDS011;38224;50.950;4.100;2023-01-01T09:06:03;15.02;;;4.28;;
52268;SDS011;38224;50.950;4.100;2023-01-01T09:08:28;19.85;;;4.28;;
52268;SDS011;38224;50.950;4.100;2023-01-01T09:10:56;17.53;;;3.70;;
52268;SDS011;38224;50.950;4.100;2023-01-01T09:13:22;20.67;;;4.55;;
52268;SDS011;38224;50.950;4.100;2023-01-01T09:15:47;20.55;;;3.60;;
52268;SDS011;38224;50.950;4.100;2023-01-01T09:18:12;15.20;;;3.30;;
52268;SDS011;38224;50.950;4.100;2023-01-01T09:20:38;16.63;;;3.58;;
52268;SDS011;38224;50.950;4.100;2023-01-01T09:23:03;18.48;;;3.63;;
52268;SDS011;38224;50.950;4.100;2023-01-01T09:25:29;15.20;;;3.72;;
52268;SDS011;38224;50.950;4.100;2023-01-01T09:28:01;19.53;;;3.53;;
52268;SDS011;38224;50.950;4.100;2023-01-01T09:30:26;15.85;;;3.53;;
52268;SDS011;38224;50.950;4.100;2023-01-01T09:32:52;18.45;;;3.78;;
52268;SDS011;38224;50.950;4.100;2023-01-01T09:35:17;20.77;;;4.32;;
52268;SDS011;38224;50.950;4.100;2023-01-01T09:37:42;15.52;;;3.88;;
52268;SDS011;38224;50.950;4.100;2023-01-01T09:40:12;19.48;;;4.18;;
52268;SDS011;38224;50.950;4.100;2023-01-01T09:42:50;21.15;;;3.70;;
52268;SDS011;38224;50.950;4.100;2023-01-01T09:45:24;16.38;;;3.65;;
52268;SDS011;38224;50.950;4.100;2023-01-01T09:47:58;17.73;;;3.53;;
52268;SDS011;38224;50.950;4.100;2023-01-01T09:50:32;18.20;;;3.75;;
52268;SDS011;38224;50.950;4.100;2023-01-01T09:52:59;14.85;;;3.72;;
52268;SDS011;38224;50.950;4.100;2023-01-01T09:55:46;19.17;;;3.95;;
52268;SDS011;38224;50.950;4.100;2023-01-01T09:58:13;16.85;;;4.00;;
52268;SDS011;38224;50.950;4.100;2023-01-01T10:00:40;21.73;;;4.15;;
52268;SDS011;38224;50.950;4.100;2023-01-01T10:08:19;18.08;;;3.47;;
52268;SDS011;38224;50.950;4.100;2023-01-01T10:15:45;9.82;;;3.17;;
52268;SDS011;38224;50.950;4.100;2023-01-01T10:18:16;14.40;;;3.40;;
52268;SDS011;38224;50.950;4.100;2023-01-01T10:21:04;15.20;;;3.15;;
52268;SDS011;38224;50.950;4.100;2023-01-01T10:23:39;13.27;;;3.45;;
52268;SDS011;38224;50.950;4.100;2023-01-01T10:26:11;10.93;;;3.58;;
52268;SDS011;38224;50.950;4.100;2023-01-01T10:31:15;15.30;;;3.55;;
52268;SDS011;38224;50.950;4.100;2023-01-01T10:33:41;17.38;;;3.58;;
52268;SDS011;38224;50.950;4.100;2023-01-01T10:36:08;15.25;;;3.53;;
52268;SDS011;38224;50.950;4.100;2023-01-01T10:38:34;15.00;;;3.55;;
52268;SDS011;38224;50.950;4.100;2023-01-01T10:41:02;12.50;;;3.80;;
52268;SDS011;38224;50.950;4.100;2023-01-01T10:43:30;19.13;;;4.03;;
52268;SDS011;38224;50.950;4.100;2023-01-01T10:45:56;12.37;;;3.30;;
52268;SDS011;38224;50.950;4.100;2023-01-01T10:48:22;12.98;;;3.03;;
52268;SDS011;38224;50.950;4.100;2023-01-01T10:50:54;13.63;;;3.60;;
52268;SDS011;38224;50.950;4.100;2023-01-01T10:55:49;19.43;;;3.50;;
52268;SDS011;38224;50.950;4.100;2023-01-01T10:58:35;19.48;;;3.97;;
52268;SDS011;38224;50.950;4.100;2023-01-01T11:01:01;17.17;;;3.95;;
52268;SDS011;38224;50.950;4.100;2023-01-01T11:03:26;10.32;;;3.05;;
52268;SDS011;38224;50.950;4.100;2023-01-01T11:08:40;19.42;;;3.40;;
52268;SDS011;38224;50.950;4.100;2023-01-01T11:11:16;10.77;;;2.88;;
52268;SDS011;38224;50.950;4.100;2023-01-01T11:13:43;14.13;;;3.47;;
52268;SDS011;38224;50.950;4.100;2023-01-01T11:16:11;16.38;;;3.15;;
52268;SDS011;38224;50.950;4.100;2023-01-01T11:18:36;15.57;;;3.72;;
52268;SDS011;38224;50.950;4.100;2023-01-01T11:21:03;15.10;;;3.63;;
52268;SDS011;38224;50.950;4.100;2023-01-01T11:23:30;13.80;;;3.00;;
52268;SDS011;38224;50.950;4.100;2023-01-01T11:26:03;14.35;;;3.17;;
52268;SDS011;38224;50.950;4.100;2023-01-01T11:28:29;16.85;;;3.53;;
52268;SDS011;38224;50.950;4.100;2023-01-01T11:31:00;16.33;;;3.40;;
52268;SDS011;38224;50.950;4.100;2023-01-01T11:33:26;11.57;;;2.50;;
52268;SDS011;38224;50.950;4.100;2023-01-01T11:35:52;16.42;;;3.60;;
52268;SDS011;38224;50.950;4.100;2023-01-01T11:38:18;20.27;;;4.30;;
52268;SDS011;38224;50.950;4.100;2023-01-01T11:40:45;14.52;;;3.30;;
52268;SDS011;38224;50.950;4.100;2023-01-01T11:43:15;16.75;;;4.22;;
52268;SDS011;38224;50.950;4.100;2023-01-01T11:45:42;23.08;;;5.10;;
52268;SDS011;38224;50.950;4.100;2023-01-01T11:48:16;15.15;;;3.42;;
52268;SDS011;38224;50.950;4.100;2023-01-01T11:50:52;23.20;;;3.67;;
52268;SDS011;38224;50.950;4.100;2023-01-01T11:58:22;17.73;;;3.38;;
52268;SDS011;38224;50.950;4.100;2023-01-01T12:00:51;14.30;;;3.42;;
52268;SDS011;38224;50.950;4.100;2023-01-01T12:06:06;22.70;;;4.78;;
52268;SDS011;38224;50.950;4.100;2023-01-01T12:08:41;15.88;;;3.17;;
52268;SDS011;38224;50.950;4.100;2023-01-01T12:13:42;18.40;;;3.63;;
52268;SDS011;38224;50.950;4.100;2023-01-01T12:18:59;18.08;;;4.53;;
52268;SDS011;38224;50.950;4.100;2023-01-01T12:21:26;16.83;;;4.35;;
52268;SDS011;38224;50.950;4.100;2023-01-01T12:23:52;11.05;;;3.28;;
52268;SDS011;38224;50.950;4.100;2023-01-01T12:26:22;11.30;;;3.38;;
52268;SDS011;38224;50.950;4.100;2023-01-01T12:29:26;18.17;;;4.40;;
52268;SDS011;38224;50.950;4.100;2023-01-01T12:34:11;18.17;;;4.47;;
52268;SDS011;38224;50.950;4.100;2023-01-01T12:36:41;19.92;;;4.38;;
52268;SDS011;38224;50.950;4.100;2023-01-01T12:39:34;14.20;;;4.22;;
52268;SDS011;38224;50.950;4.100;2023-01-01T12:42:08;18.10;;;4.68;;
52268;SDS011;38224;50.950;4.100;2023-01-01T12:45:03;16.50;;;3.83;;
52268;SDS011;38224;50.950;4.100;2023-01-01T12:50:18;17.42;;;3.97;;
52268;SDS011;38224;50.950;4.100;2023-01-01T12:53:02;15.30;;;3.70;;
52268;SDS011;38224;50.950;4.100;2023-01-01T12:58:15;15.02;;;3.47;;
52268;SDS011;38224;50.950;4.100;2023-01-01T13:00:44;18.60;;;3.88;;
52268;SDS011;38224;50.950;4.100;2023-01-01T13:03:19;19.73;;;3.72;;
52268;SDS011;38224;50.950;4.100;2023-01-01T13:05:47;11.85;;;4.22;;
52268;SDS011;38224;50.950;4.100;2023-01-01T13:08:14;18.48;;;3.88;;
52268;SDS011;38224;50.950;4.100;2023-01-01T13:10:41;18.67;;;4.13;;
52268;SDS011;38224;50.950;4.100;2023-01-01T13:13:07;12.32;;;3.17;;
52268;SDS011;38224;50.950;4.100;2023-01-01T13:20:39;15.68;;;3.95;;
52268;SDS011;38224;50.950;4.100;2023-01-01T13:23:05;16.52;;;3.75;;
52268;SDS011;38224;50.950;4.100;2023-01-01T13:25:30;17.03;;;4.10;;
52268;SDS011;38224;50.950;4.100;2023-01-01T13:35:39;22.20;;;5.57;;
52268;SDS011;38224;50.950;4.100;2023-01-01T13:38:11;23.00;;;5.10;;
52268;SDS011;38224;50.950;4.100;2023-01-01T13:40:50;19.80;;;4.03;;
52268;SDS011;38224;50.950;4.100;2023-01-01T13:43:17;17.52;;;4.78;;
52268;SDS011;38224;50.950;4.100;2023-01-01T13:45:42;15.25;;;3.72;;
52268;SDS011;38224;50.950;4.100;2023-01-01T13:56:02;17.30;;;4.60;;
52268;SDS011;38224;50.950;4.100;2023-01-01T14:03:26;18.92;;;4.05;;
52268;SDS011;38224;50.950;4.100;2023-01-01T14:05:58;17.23;;;4.90;;
52268;SDS011;38224;50.950;4.100;2023-01-01T14:10:54;24.70;;;4.90;;
52268;SDS011;38224;50.950;4.100;2023-01-01T14:13:19;14.50;;;4.45;;
52268;SDS011;38224;50.950;4.100;2023-01-01T14:18:17;16.98;;;4.43;;
52268;SDS011;38224;50.950;4.100;2023-01-01T14:20:46;22.17;;;4.45;;
52268;SDS011;38224;50.950;4.100;2023-01-01T14:23:18;18.85;;;5.13;;
52268;SDS011;38224;50.950;4.100;2023-01-01T14:25:44;19.27;;;5.07;;
52268;SDS011;38224;50.950;4.100;2023-01-01T14:28:13;21.20;;;4.25;;
52268;SDS011;38224;50.950;4.100;2023-01-01T14:30:40;20.17;;;4.18;;
52268;SDS011;38224;50.950;4.100;2023-01-01T14:33:18;17.98;;;4.57;;
52268;SDS011;38224;50.950;4.100;2023-01-01T14:35:49;13.15;;;3.72;;
52268;SDS011;38224;50.950;4.100;2023-01-01T14:38:20;19.88;;;4.18;;
52268;SDS011;38224;50.950;4.100;2023-01-01T14:40:46;16.50;;;4.55;;
52268;SDS011;38224;50.950;4.100;2023-01-01T14:43:12;20.58;;;4.75;;
52268;SDS011;38224;50.950;4.100;2023-01-01T14:45:41;27.50;;;5.40;;
52268;SDS011;38224;50.950;4.100;2023-01-01T14:48:10;15.07;;;3.72;;
52268;SDS011;38224;50.950;4.100;2023-01-01T14:50:39;12.90;;;4.00;;
52268;SDS011;38224;50.950;4.100;2023-01-01T14:53:06;19.00;;;4.63;;
52268;SDS011;38224;50.950;4.100;2023-01-01T14:55:43;17.67;;;4.47;;
52268;SDS011;38224;50.950;4.100;2023-01-01T14:58:12;13.20;;;3.58;;
52268;SDS011;38224;50.950;4.100;2023-01-01T15:00:40;15.45;;;3.95;;
52268;SDS011;38224;50.950;4.100;2023-01-01T15:03:13;22.38;;;4.60;;
52268;SDS011;38224;50.950;4.100;2023-01-01T15:08:05;19.08;;;4.43;;
52268;SDS011;38224;50.950;4.100;2023-01-01T15:10:32;18.50;;;5.43;;
52268;SDS011;38224;50.950;4.100;2023-01-01T15:12:58;15.68;;;4.07;;
52268;SDS011;38224;50.950;4.100;2023-01-01T15:15:36;21.50;;;4.40;;
52268;SDS011;38224;50.950;4.100;2023-01-01T15:18:02;19.63;;;5.30;;
52268;SDS011;38224;50.950;4.100;2023-01-01T15:20:27;25.25;;;6.22;;
52268;SDS011;38224;50.950;4.100;2023-01-01T15:22:53;19.48;;;4.78;;
52268;SDS011;38224;50.950;4.100;2023-01-01T15:25:19;17.48;;;4.50;;
52268;SDS011;38224;50.950;4.100;2023-01-01T15:27:51;20.33;;;5.68;;
52268;SDS011;38224;50.950;4.100;2023-01-01T15:30:22;24.92;;;4.88;;
52268;SDS011;38224;50.950;4.100;2023-01-01T15:32:48;14.57;;;4.68;;
52268;SDS011;38224;50.950;4.100;2023-01-01T15:35:21;16.88;;;4.55;;
52268;SDS011;38224;50.950;4.100;2023-01-01T15:37:51;16.02;;;4.53;;
52268;SDS011;38224;50.950;4.100;2023-01-01T15:42:44;16.83;;;4.30;;
52268;SDS011;38224;50.950;4.100;2023-01-01T15:48:09;17.13;;;3.90;;
52268;SDS011;38224;50.950;4.100;2023-01-01T15:50:53;21.10;;;5.10;;
52268;SDS011;38224;50.950;4.100;2023-01-01T15:53:26;19.08;;;4.63;;
52268;SDS011;38224;50.950;4.100;2023-01-01T15:55:56;15.32;;;4.72;;
52268;SDS011;38224;50.950;4.100;2023-01-01T15:58:29;20.08;;;4.45;;
52268;SDS011;38224;50.950;4.100;2023-01-01T16:00:57;16.08;;;5.00;;
52268;SDS011;38224;50.950;4.100;2023-01-01T16:03:24;27.27;;;6.35;;
52268;SDS011;38224;50.950;4.100;2023-01-01T16:05:50;17.75;;;5.13;;
52268;SDS011;38224;50.950;4.100;2023-01-01T16:08:17;18.05;;;6.28;;
52268;SDS011;38224;50.950;4.100;2023-01-01T16:10:44;21.50;;;5.32;;
52268;SDS011;38224;50.950;4.100;2023-01-01T16:13:09;17.10;;;6.00;;
52268;SDS011;38224;50.950;4.100;2023-01-01T16:15:36;23.90;;;6.70;;
52268;SDS011;38224;50.950;4.100;2023-01-01T16:18:02;20.65;;;5.22;;
52268;SDS011;38224;50.950;4.100;2023-01-01T16:20:27;9.93;;;4.38;;
52268;SDS011;38224;50.950;4.100;2023-01-01T16:22:53;16.85;;;5.50;;
52268;SDS011;38224;50.950;4.100;2023-01-01T16:25:19;14.93;;;4.73;;
52268;SDS011;38224;50.950;4.100;2023-01-01T16:27:44;18.90;;;6.25;;
52268;SDS011;38224;50.950;4.100;2023-01-01T16:30:10;15.80;;;4.93;;